Chattanooga (CHA/KCHA)

Map

Destinations

Information

Location
Chattanooga, TN
Local Time
18:29 / 6:29 pm
GMT Time
22:29 / 10:29 pm
Gates
Unassigned
No FAA reported delays
METAR KCHA 272153Z 18010G16KT 10SM FEW045 BKN110 OVC250 23/12 A2990 RMK AO2 LTG DSNT N AND S AND NW SLP119 CB DSNT S AND NW T02330122
TAF KCHA 271720Z 2718/2818 19010KT P6SM SCT025 BKN030 FM272100 19007KT P6SM VCTS BKN040CB FM280400 21005KT 4SM -RA VCTS OVC020CB FM280800 21003KT P6SM VCSH OVC020 FM281500 24005KT P6SM BKN015
  • No charts available